createdAt,value
2019-03-25T00:00:39.565Z,43.63
2019-03-25T00:03:07.951Z,40.30
2019-03-25T00:05:36.262Z,41.40
2019-03-25T00:08:04.829Z,44.65
2019-03-25T00:10:33.143Z,46.00
2019-03-25T00:13:01.593Z,42.33
2019-03-25T00:15:29.899Z,43.40
2019-03-25T00:17:58.234Z,45.77
2019-03-25T00:20:26.624Z,44.73
2019-03-25T00:22:55.311Z,46.07
2019-03-25T00:25:23.637Z,43.50
2019-03-25T00:27:51.955Z,44.45
2019-03-25T00:30:20.355Z,46.50
2019-03-25T00:32:48.667Z,45.80
2019-03-25T00:35:17.038Z,45.20
2019-03-25T00:37:45.514Z,47.10
2019-03-25T00:40:13.885Z,45.50
2019-03-25T00:42:42.221Z,45.53
2019-03-25T00:45:11.158Z,44.07
2019-03-25T00:47:39.848Z,44.73
2019-03-25T00:50:08.904Z,43.73
2019-03-25T00:52:37.533Z,45.87
2019-03-25T00:55:06.483Z,44.07
2019-03-25T00:57:34.830Z,45.93
2019-03-25T01:00:03.682Z,46.20
2019-03-25T01:02:32.280Z,43.63
2019-03-25T01:05:00.773Z,43.85
2019-03-25T01:07:29.679Z,45.90
2019-03-25T01:09:58.004Z,47.00
2019-03-25T01:12:26.318Z,44.57
2019-03-25T01:14:54.708Z,43.07
2019-03-25T01:17:23.022Z,42.63
2019-03-25T01:19:51.882Z,44.93
2019-03-25T01:22:20.268Z,46.05
2019-03-25T01:24:48.606Z,43.13
2019-03-25T01:27:16.924Z,48.90
2019-03-25T01:29:45.239Z,45.20
2019-03-25T01:32:13.635Z,46.33
2019-03-25T01:34:42.028Z,45.83
2019-03-25T01:37:10.355Z,46.95
2019-03-25T01:39:38.789Z,49.43
2019-03-25T01:42:07.120Z,47.40
2019-03-25T01:44:35.432Z,46.03
2019-03-25T01:47:03.766Z,44.97
2019-03-25T01:49:32.098Z,47.47
2019-03-25T01:52:00.413Z,48.57
2019-03-25T01:54:28.967Z,48.23
2019-03-25T01:56:57.289Z,51.73
2019-03-25T01:59:25.623Z,49.25
2019-03-25T02:01:54.006Z,47.43
2019-03-25T02:04:22.342Z,49.17
2019-03-25T02:06:50.655Z,46.60
2019-03-25T02:09:19.008Z,46.87
2019-03-25T02:11:47.401Z,50.37
2019-03-25T02:14:15.718Z,48.27
2019-03-25T02:16:44.043Z,53.23
2019-03-25T02:19:12.366Z,49.60
2019-03-25T02:21:40.824Z,48.77
2019-03-25T02:24:09.499Z,51.00
2019-03-25T02:26:37.833Z,50.60
2019-03-25T02:29:06.145Z,53.87
2019-03-25T02:31:34.472Z,53.80
2019-03-25T02:34:02.786Z,49.80
2019-03-25T02:36:31.127Z,49.90
2019-03-25T02:38:59.507Z,53.37
2019-03-25T02:41:27.818Z,51.80
2019-03-25T02:43:56.161Z,52.27
2019-03-25T02:46:24.460Z,54.65
2019-03-25T02:48:52.857Z,48.80
2019-03-25T02:51:21.178Z,51.83
2019-03-25T02:53:49.506Z,48.67
2019-03-25T02:56:17.964Z,49.60
2019-03-25T02:58:46.363Z,51.47
2019-03-25T03:01:14.675Z,54.98
2019-03-25T03:03:43.094Z,48.90
2019-03-25T03:06:11.492Z,48.30
2019-03-25T03:08:39.875Z,47.23
2019-03-25T03:11:08.987Z,50.20
2019-03-25T03:13:37.293Z,49.57
2019-03-25T03:16:05.699Z,51.30
2019-03-25T03:18:34.002Z,54.50
2019-03-25T03:21:02.331Z,50.77
2019-03-25T03:23:31.105Z,50.40
2019-03-25T03:25:59.511Z,50.20
2019-03-25T03:28:27.806Z,49.53
2019-03-25T03:30:56.203Z,50.30
2019-03-25T03:33:24.547Z,52.80
2019-03-25T03:35:52.836Z,52.17
2019-03-25T03:38:21.276Z,48.90
2019-03-25T03:40:49.595Z,51.05
2019-03-25T03:43:17.927Z,54.00
2019-03-25T03:45:46.247Z,55.77
2019-03-25T03:48:14.800Z,50.00
2019-03-25T03:50:43.367Z,53.03
2019-03-25T03:53:12.060Z,52.53
2019-03-25T03:55:41.058Z,52.93
2019-03-25T03:58:09.761Z,52.30
2019-03-25T04:00:38.069Z,51.30
2019-03-25T04:03:06.415Z,54.37
2019-03-25T04:05:34.798Z,54.93
2019-03-25T04:08:03.288Z,51.20
2019-03-25T04:10:31.668Z,50.47
2019-03-25T04:13:00.840Z,50.03
2019-03-25T04:15:30.800Z,52.20
2019-03-25T04:17:59.579Z,48.77
2019-03-25T04:20:28.049Z,49.43
2019-03-25T04:22:56.430Z,50.77
2019-03-25T04:25:24.837Z,48.58
2019-03-25T04:27:53.148Z,52.37
2019-03-25T04:30:21.582Z,50.53
2019-03-25T04:32:49.967Z,54.20
2019-03-25T04:35:18.282Z,47.83
2019-03-25T04:37:46.930Z,43.92
2019-03-25T04:40:15.314Z,48.50
2019-03-25T04:42:43.723Z,49.55
2019-03-25T04:45:12.170Z,47.48
2019-03-25T04:47:40.498Z,49.03
2019-03-25T04:50:08.951Z,53.57
2019-03-25T04:52:37.278Z,49.48
2019-03-25T04:55:06.628Z,52.80
2019-03-25T04:57:34.964Z,50.03
2019-03-25T05:00:03.812Z,51.87
2019-03-25T05:02:32.302Z,52.80
2019-03-25T05:05:00.707Z,49.83
2019-03-25T05:07:29.267Z,50.07
2019-03-25T05:09:57.598Z,52.40
2019-03-25T05:12:25.907Z,48.10
2019-03-25T05:14:54.237Z,48.90
2019-03-25T05:17:22.549Z,51.17
2019-03-25T05:19:50.896Z,48.57
2019-03-25T05:22:19.535Z,51.93
2019-03-25T05:24:47.848Z,51.58
2019-03-25T05:27:17.249Z,50.20
2019-03-25T05:29:45.573Z,50.83
2019-03-25T05:32:13.919Z,47.00
2019-03-25T05:34:42.578Z,49.42
2019-03-25T05:37:11.261Z,48.77
2019-03-25T05:39:39.791Z,47.67
2019-03-25T05:42:08.098Z,52.57
2019-03-25T05:44:36.989Z,52.83
2019-03-25T05:47:05.713Z,49.53
2019-03-25T05:49:34.404Z,51.77
2019-03-25T05:52:03.091Z,46.97
2019-03-25T05:54:31.780Z,50.90
2019-03-25T05:57:02.762Z,47.93
2019-03-25T05:59:30.223Z,50.40
2019-03-25T06:01:58.587Z,50.03
2019-03-25T06:04:26.898Z,54.03
2019-03-25T06:06:55.231Z,54.67
2019-03-25T06:09:23.719Z,53.73
2019-03-25T06:11:52.059Z,55.50
2019-03-25T06:14:20.371Z,53.68
2019-03-25T06:16:48.706Z,56.43
2019-03-25T06:19:17.017Z,55.93
2019-03-25T06:21:45.350Z,56.20
2019-03-25T06:24:13.658Z,57.30
2019-03-25T06:26:42.001Z,60.45
2019-03-25T06:29:10.378Z,63.07
2019-03-25T06:31:38.847Z,59.87
2019-03-25T06:34:07.249Z,62.77
2019-03-25T06:36:35.630Z,66.00
2019-03-25T06:39:05.499Z,61.83
2019-03-25T06:41:33.803Z,58.43
2019-03-25T06:44:02.145Z,59.90
2019-03-25T06:46:30.527Z,61.60
2019-03-25T06:48:58.862Z,59.80
2019-03-25T06:51:27.178Z,64.20
2019-03-25T06:53:55.487Z,60.03
2019-03-25T06:56:24.192Z,54.87
2019-03-25T06:58:52.507Z,60.70
2019-03-25T07:01:20.835Z,56.10
2019-03-25T07:03:49.215Z,62.10
2019-03-25T07:06:17.611Z,62.30
2019-03-25T07:08:45.995Z,56.97
2019-03-25T07:11:14.784Z,63.97
2019-03-25T07:13:43.577Z,61.40
2019-03-25T07:16:11.890Z,53.83
2019-03-25T07:18:40.267Z,58.90
2019-03-25T07:21:08.582Z,59.73
2019-03-25T07:23:36.918Z,59.53
2019-03-25T07:26:05.596Z,56.87
2019-03-25T07:28:33.919Z,57.57
2019-03-25T07:31:02.232Z,58.17
2019-03-25T07:33:30.562Z,52.67
2019-03-25T07:35:58.871Z,52.07
2019-03-25T07:38:27.219Z,47.83
2019-03-25T07:40:55.526Z,45.53
2019-03-25T07:43:23.836Z,41.30
2019-03-25T07:45:52.379Z,41.97
2019-03-25T07:48:20.708Z,40.50
2019-03-25T07:50:49.031Z,37.20
2019-03-25T07:53:17.683Z,39.63
2019-03-25T07:55:46.103Z,36.20
2019-03-25T07:58:14.609Z,36.10
2019-03-25T08:00:42.987Z,39.10
2019-03-25T08:03:11.459Z,34.57
2019-03-25T08:05:39.768Z,41.00
2019-03-25T08:08:08.097Z,42.57
2019-03-25T08:10:36.847Z,37.13
2019-03-25T08:13:07.070Z,33.98
2019-03-25T08:15:35.530Z,35.70
2019-03-25T08:18:05.464Z,37.45
2019-03-25T08:20:33.856Z,36.40
2019-03-25T08:23:02.459Z,33.23
2019-03-25T08:25:30.787Z,33.00
2019-03-25T08:28:00.466Z,35.20
2019-03-25T08:30:28.968Z,34.70
2019-03-25T08:32:57.633Z,33.10
2019-03-25T08:35:26.049Z,34.57
2019-03-25T08:37:54.345Z,38.20
2019-03-25T08:40:22.748Z,33.63
2019-03-25T08:42:51.419Z,35.77
2019-03-25T08:45:19.830Z,35.70
2019-03-25T08:47:48.449Z,36.87
2019-03-25T08:50:16.759Z,36.57
2019-03-25T08:52:45.172Z,28.83
2019-03-25T08:55:13.557Z,33.70
2019-03-25T08:57:41.892Z,36.03
2019-03-25T09:00:12.293Z,38.70
2019-03-25T09:02:40.941Z,32.90
2019-03-25T09:05:09.732Z,31.33
2019-03-25T09:07:38.174Z,28.77
2019-03-25T09:10:09.482Z,27.30
2019-03-25T09:12:38.279Z,25.57
2019-03-25T09:15:08.297Z,26.20
2019-03-25T09:17:36.980Z,18.73
2019-03-25T09:20:07.793Z,17.07
2019-03-25T09:22:36.189Z,14.77
2019-03-25T09:25:07.668Z,14.30
2019-03-25T09:27:36.146Z,15.63
2019-03-25T09:30:06.264Z,13.65
2019-03-25T09:32:34.674Z,12.50
2019-03-25T09:35:03.066Z,9.98
2019-03-25T09:37:31.389Z,13.40
2019-03-25T09:40:00.381Z,13.27
2019-03-25T09:42:28.666Z,14.07
2019-03-25T09:44:57.172Z,11.07
2019-03-25T09:47:25.546Z,12.80
2019-03-25T09:49:53.850Z,9.80
2019-03-25T09:52:22.634Z,13.07
2019-03-25T09:54:50.941Z,11.75
2019-03-25T09:57:19.625Z,10.18
2019-03-25T09:59:48.212Z,9.27
2019-03-25T10:02:16.620Z,10.50
2019-03-25T10:04:45.267Z,10.85
2019-03-25T10:07:16.745Z,9.13
2019-03-25T10:09:45.408Z,10.63
2019-03-25T10:12:13.708Z,8.77
2019-03-25T10:14:42.095Z,8.50
2019-03-25T10:17:10.459Z,9.10
2019-03-25T10:19:39.136Z,6.83
2019-03-25T10:22:07.439Z,7.77
2019-03-25T10:24:35.739Z,7.73
2019-03-25T10:27:04.053Z,8.00
2019-03-25T10:29:32.360Z,6.97
2019-03-25T10:32:00.749Z,7.40
2019-03-25T10:34:29.049Z,6.30
2019-03-25T10:36:57.710Z,7.60
2019-03-25T10:39:26.007Z,7.10
2019-03-25T10:41:54.327Z,7.70
2019-03-25T10:44:22.622Z,7.35
2019-03-25T10:46:50.948Z,7.08
2019-03-25T10:49:19.272Z,7.75
2019-03-25T10:51:47.681Z,8.33
2019-03-25T10:54:15.993Z,7.87
2019-03-25T10:56:49.093Z,9.23
2019-03-25T10:59:14.323Z,6.23
2019-03-25T11:01:42.736Z,6.40
2019-03-25T11:04:11.085Z,6.20
2019-03-25T11:06:39.536Z,7.43
2019-03-25T11:09:08.128Z,6.63
2019-03-25T11:11:36.436Z,5.93
2019-03-25T11:14:05.114Z,6.57
2019-03-25T11:16:33.441Z,6.50
2019-03-25T11:19:01.716Z,5.67
2019-03-25T11:21:30.040Z,3.77
2019-03-25T11:23:58.339Z,2.55
2019-03-25T11:26:26.981Z,3.67
2019-03-25T11:28:55.282Z,4.07
2019-03-25T11:31:23.644Z,4.57
2019-03-25T11:33:52.026Z,4.30
2019-03-25T11:36:20.395Z,4.92
2019-03-25T11:38:49.204Z,5.03
2019-03-25T11:41:17.580Z,4.80
2019-03-25T11:43:45.968Z,4.47
2019-03-25T11:46:14.733Z,3.83
2019-03-25T11:48:43.637Z,4.33
2019-03-25T11:51:12.227Z,4.67
2019-03-25T11:53:40.563Z,4.70
2019-03-25T11:56:09.007Z,3.87
2019-03-25T11:58:37.371Z,3.67
2019-03-25T12:01:05.830Z,5.53
2019-03-25T12:03:34.225Z,5.12
2019-03-25T12:06:02.545Z,5.75
2019-03-25T12:08:30.916Z,5.08
2019-03-25T12:10:59.228Z,5.07
2019-03-25T12:13:27.809Z,4.80
2019-03-25T12:15:56.227Z,4.13
2019-03-25T12:18:24.838Z,4.77
2019-03-25T12:20:53.239Z,4.57
2019-03-25T12:23:26.278Z,3.57
2019-03-25T12:25:52.240Z,3.97
2019-03-25T12:28:20.915Z,2.90
2019-03-25T12:30:51.041Z,3.07
2019-03-25T12:33:19.720Z,3.10
2019-03-25T12:35:48.432Z,2.73
2019-03-25T12:38:16.794Z,2.53
2019-03-25T12:40:45.179Z,2.50
2019-03-25T12:43:13.548Z,2.70
2019-03-25T12:45:41.962Z,2.43
2019-03-25T12:48:10.258Z,2.27
2019-03-25T12:50:38.923Z,2.50
2019-03-25T12:53:07.643Z,2.60
2019-03-25T12:55:35.994Z,2.35
2019-03-25T12:58:07.196Z,2.73
2019-03-25T13:00:42.379Z,2.03
2019-03-25T13:03:10.756Z,2.70
2019-03-25T13:05:39.129Z,1.90
2019-03-25T13:08:07.588Z,2.10
2019-03-25T13:10:36.413Z,3.10
2019-03-25T13:13:04.883Z,2.20
2019-03-25T13:15:33.253Z,3.58
2019-03-25T13:18:01.868Z,3.50
2019-03-25T13:20:30.185Z,3.30
2019-03-25T13:22:58.552Z,3.20
2019-03-25T13:25:27.475Z,3.97
2019-03-25T13:27:55.847Z,3.87
2019-03-25T13:30:24.262Z,3.40
2019-03-25T13:32:52.566Z,3.53
2019-03-25T13:35:20.887Z,3.67
2019-03-25T13:37:49.186Z,4.00
2019-03-25T13:40:17.879Z,4.43
2019-03-25T13:42:46.322Z,4.00
2019-03-25T13:45:14.683Z,3.67
2019-03-25T13:47:42.995Z,3.22
2019-03-25T13:50:12.101Z,3.40
2019-03-25T13:52:40.371Z,3.70
2019-03-25T13:55:09.046Z,2.83
2019-03-25T13:57:37.362Z,2.37
2019-03-25T14:00:07.396Z,3.90
2019-03-25T14:02:35.809Z,3.57
2019-03-25T14:05:05.473Z,2.87
2019-03-25T14:07:33.768Z,2.47
2019-03-25T14:10:02.166Z,2.00
2019-03-25T14:12:30.473Z,2.50
2019-03-25T14:14:58.792Z,1.90
2019-03-25T14:17:27.428Z,1.80
2019-03-25T14:19:55.811Z,1.37
2019-03-25T14:22:24.112Z,1.40
2019-03-25T14:24:52.611Z,1.37
2019-03-25T14:27:20.922Z,1.67
2019-03-25T14:29:49.254Z,1.80
2019-03-25T14:32:17.630Z,1.73
2019-03-25T14:34:45.947Z,1.55
2019-03-25T14:37:14.375Z,1.93
2019-03-25T14:39:42.976Z,1.97
2019-03-25T14:42:11.287Z,1.80
2019-03-25T14:44:39.958Z,2.10
2019-03-25T14:47:08.281Z,2.47
2019-03-25T14:49:36.842Z,2.37
2019-03-25T14:52:06.341Z,2.20
2019-03-25T14:54:35.351Z,1.92
2019-03-25T14:57:03.646Z,1.47
2019-03-25T14:59:32.025Z,1.90
2019-03-25T15:02:00.330Z,2.00
2019-03-25T15:04:28.649Z,2.20
2019-03-25T15:06:57.014Z,2.47
2019-03-25T15:09:25.334Z,2.07
2019-03-25T15:11:53.699Z,2.62
2019-03-25T15:14:22.081Z,2.90
2019-03-25T15:16:50.445Z,3.40
2019-03-25T15:19:18.829Z,3.13
2019-03-25T15:21:47.128Z,3.30
2019-03-25T15:24:15.503Z,4.30
2019-03-25T15:26:43.800Z,3.63
2019-03-25T15:29:12.095Z,4.50
2019-03-25T15:31:41.463Z,5.00
2019-03-25T15:34:09.833Z,3.53
2019-03-25T15:36:38.148Z,5.07
2019-03-25T15:39:08.294Z,4.70
2019-03-25T15:41:37.142Z,3.70
2019-03-25T15:44:05.811Z,3.83
2019-03-25T15:46:34.309Z,4.23
2019-03-25T15:49:02.672Z,3.80
2019-03-25T15:51:31.017Z,3.63
2019-03-25T15:53:59.324Z,4.47
2019-03-25T15:56:27.692Z,4.10
2019-03-25T15:58:56.012Z,3.50
2019-03-25T16:01:24.312Z,2.67
2019-03-25T16:03:52.958Z,2.83
2019-03-25T16:06:22.466Z,3.77
2019-03-25T16:08:50.843Z,2.60
2019-03-25T16:11:19.207Z,2.70
2019-03-25T16:13:47.598Z,2.53
2019-03-25T16:16:15.967Z,2.77
2019-03-25T16:18:44.497Z,2.60
2019-03-25T16:21:12.852Z,2.93
2019-03-25T16:23:41.279Z,3.03
2019-03-25T16:26:09.648Z,2.10
2019-03-25T16:28:38.319Z,2.90
2019-03-25T16:31:06.774Z,2.73
2019-03-25T16:33:35.071Z,2.45
2019-03-25T16:36:03.878Z,2.67
2019-03-25T16:38:32.241Z,2.33
2019-03-25T16:41:00.605Z,2.60
2019-03-25T16:43:28.905Z,2.17
2019-03-25T16:45:57.239Z,2.47
2019-03-25T16:48:25.600Z,2.40
2019-03-25T16:50:53.905Z,2.65
2019-03-25T16:53:22.227Z,3.03
2019-03-25T16:55:50.753Z,2.53
2019-03-25T16:58:19.075Z,2.90
2019-03-25T17:00:47.442Z,3.77
2019-03-25T17:03:16.178Z,2.30
2019-03-25T17:05:44.732Z,3.37
2019-03-25T17:08:13.349Z,3.93
2019-03-25T17:10:41.669Z,3.87
2019-03-25T17:13:09.990Z,2.90
2019-03-25T17:15:38.423Z,3.30
2019-03-25T17:18:06.782Z,3.92
2019-03-25T17:20:35.521Z,3.90
2019-03-25T17:23:03.838Z,3.77
2019-03-25T17:25:32.141Z,3.87
2019-03-25T17:28:00.827Z,4.03
2019-03-25T17:30:29.222Z,3.57
2019-03-25T17:32:57.885Z,4.00
2019-03-25T17:35:26.178Z,3.60
2019-03-25T17:37:55.288Z,3.65
2019-03-25T17:40:23.625Z,3.27
2019-03-25T17:42:51.913Z,1.80
2019-03-25T17:45:20.770Z,2.37
2019-03-25T17:47:49.094Z,1.70
2019-03-25T17:50:17.490Z,1.70
2019-03-25T17:52:45.787Z,1.70
2019-03-25T17:55:14.771Z,2.00
2019-03-25T17:57:43.050Z,1.60
2019-03-25T18:00:12.871Z,1.90
2019-03-25T18:02:41.546Z,1.70
2019-03-25T18:05:10.182Z,1.20
2019-03-25T18:07:38.916Z,1.30
2019-03-25T18:10:09.002Z,1.37
2019-03-25T18:12:39.000Z,0.80
2019-03-25T18:15:11.586Z,1.87
2019-03-25T18:17:39.885Z,1.33
2019-03-25T18:20:18.147Z,1.55
2019-03-25T18:22:40.122Z,1.60
2019-03-25T18:25:09.275Z,1.07
2019-03-25T18:27:37.669Z,1.57
2019-03-25T18:30:07.880Z,1.57
2019-03-25T18:32:36.208Z,2.00
2019-03-25T18:35:05.655Z,1.70
2019-03-25T18:37:33.953Z,2.20
2019-03-25T18:40:02.623Z,1.27
2019-03-25T18:42:31.056Z,1.70
2019-03-25T18:44:59.452Z,1.87
2019-03-25T18:47:27.827Z,2.10
2019-03-25T18:49:56.146Z,2.00
2019-03-25T18:52:24.834Z,1.90
2019-03-25T18:54:53.149Z,2.20
2019-03-25T18:57:21.508Z,2.20
2019-03-25T18:59:49.906Z,2.90
2019-03-25T19:02:18.195Z,4.00
2019-03-25T19:04:46.844Z,2.37
2019-03-25T19:07:16.720Z,2.60
2019-03-25T19:09:45.545Z,2.00
2019-03-25T19:12:16.329Z,3.52
2019-03-25T19:14:46.283Z,4.85
2019-03-25T19:17:14.765Z,3.27
2019-03-25T19:19:43.401Z,3.50
2019-03-25T19:22:12.873Z,4.37
2019-03-25T19:24:41.609Z,3.30
2019-03-25T19:27:09.900Z,4.03
2019-03-25T19:29:39.681Z,4.70
2019-03-25T19:32:09.674Z,3.80
2019-03-25T19:34:38.351Z,3.67
2019-03-25T19:37:07.096Z,3.80
2019-03-25T19:39:36.277Z,3.20
2019-03-25T19:42:04.893Z,4.08
2019-03-25T19:44:33.360Z,3.47
2019-03-25T19:47:01.659Z,5.20
2019-03-25T19:49:29.993Z,4.83
2019-03-25T19:51:58.324Z,6.40
2019-03-25T19:54:26.660Z,5.58
2019-03-25T19:56:55.381Z,4.90
2019-03-25T19:59:23.667Z,5.00
2019-03-25T20:01:52.033Z,5.70
2019-03-25T20:04:20.430Z,6.03
2019-03-25T20:06:48.755Z,5.10
2019-03-25T20:09:17.387Z,3.20
2019-03-25T20:11:46.069Z,3.03
2019-03-25T20:14:14.459Z,3.10
2019-03-25T20:16:42.805Z,3.23
2019-03-25T20:19:11.071Z,3.37
2019-03-25T20:21:39.397Z,3.00
2019-03-25T20:24:07.693Z,2.55
2019-03-25T20:26:36.052Z,2.03
2019-03-25T20:29:06.455Z,2.00
2019-03-25T20:31:35.285Z,2.50
2019-03-25T20:34:10.936Z,1.43
2019-03-25T20:36:33.877Z,2.12
2019-03-25T20:39:02.214Z,1.43
2019-03-25T20:41:30.603Z,1.47
2019-03-25T20:43:58.927Z,1.12
2019-03-25T20:46:27.192Z,1.57
2019-03-25T20:48:55.483Z,1.20
2019-03-25T20:51:23.971Z,1.73
2019-03-25T20:53:52.489Z,1.73
2019-03-25T20:56:21.042Z,1.20
2019-03-25T20:58:49.394Z,1.40
2019-03-25T21:01:17.680Z,1.30
2019-03-25T21:03:46.064Z,1.53
2019-03-25T21:06:14.325Z,1.30
2019-03-25T21:08:42.644Z,1.17
2019-03-25T21:11:11.284Z,1.10
2019-03-25T21:13:39.940Z,1.87
2019-03-25T21:16:08.287Z,1.10
2019-03-25T21:18:36.655Z,1.02
2019-03-25T21:21:05.042Z,1.20
2019-03-25T21:23:33.403Z,1.60
2019-03-25T21:26:01.817Z,1.53
2019-03-25T21:28:30.158Z,1.43
2019-03-25T21:30:58.506Z,1.90
2019-03-25T21:33:26.816Z,1.50
2019-03-25T21:35:55.147Z,2.98
2019-03-25T21:38:23.419Z,1.63
2019-03-25T21:40:51.814Z,1.85
2019-03-25T21:43:20.737Z,2.05
2019-03-25T21:45:49.323Z,2.20
2019-03-25T21:48:17.934Z,2.00
2019-03-25T21:50:46.250Z,2.77
2019-03-25T21:53:14.669Z,2.10
2019-03-25T21:55:43.337Z,2.83
2019-03-25T21:58:11.678Z,1.80
2019-03-25T22:00:39.974Z,2.37
2019-03-25T22:03:12.017Z,2.93
2019-03-25T22:05:38.310Z,3.20
2019-03-25T22:08:06.671Z,2.00
2019-03-25T22:10:35.070Z,3.20
2019-03-25T22:13:03.442Z,3.67
2019-03-25T22:15:31.753Z,3.43
2019-03-25T22:18:00.068Z,3.17
2019-03-25T22:20:28.764Z,3.63
2019-03-25T22:22:57.140Z,3.97
2019-03-25T22:25:26.286Z,4.00
2019-03-25T22:27:54.932Z,4.08
2019-03-25T22:30:25.841Z,3.53
2019-03-25T22:32:53.470Z,4.50
2019-03-25T22:35:21.802Z,3.90
2019-03-25T22:37:50.191Z,4.17
2019-03-25T22:40:18.665Z,5.10
2019-03-25T22:42:46.958Z,4.27
2019-03-25T22:45:37.575Z,4.97
2019-03-25T22:48:07.513Z,3.70
2019-03-25T22:50:36.097Z,4.95
2019-03-25T22:53:04.699Z,3.43
2019-03-25T22:55:33.001Z,5.50
2019-03-25T22:58:01.831Z,4.67
2019-03-25T23:00:41.397Z,5.43
2019-03-25T23:03:09.720Z,5.30
2019-03-25T23:05:38.162Z,4.60
2019-03-25T23:08:06.464Z,5.05
2019-03-25T23:10:35.111Z,4.05
2019-03-25T23:13:33.612Z,4.50
2019-03-25T23:16:03.113Z,5.00
2019-03-25T23:18:32.447Z,5.10
2019-03-25T23:21:01.104Z,5.70
2019-03-25T23:23:29.703Z,6.43
2019-03-25T23:25:58.082Z,5.60
2019-03-25T23:28:26.470Z,5.50
2019-03-25T23:30:54.903Z,6.58
2019-03-25T23:33:23.212Z,6.33
2019-03-25T23:35:51.686Z,6.27
2019-03-25T23:38:20.287Z,6.60
2019-03-25T23:40:48.580Z,6.10
2019-03-25T23:43:16.977Z,7.97
2019-03-25T23:45:45.353Z,8.88
2019-03-25T23:48:13.748Z,8.27
2019-03-25T23:50:42.078Z,8.80
2019-03-25T23:53:10.783Z,8.07
2019-03-25T23:55:39.464Z,7.70
2019-03-25T23:58:07.853Z,9.57
